<?xml version="1.0" encoding="UTF-8" standalone="yes"?>
<gpx xmlns="http://www.topografix.com/GPX/1/1" xmlns:xsi="http://www.w3.org/2001/XMLSchema-instance" version="1.1" creator="MagicMaps Tour Explorer" xsi:schemaLocation="http://www.topografix.com/GPX/1/1 http://www.topografix.com/GPX/1/1/gpx.xsd">
  <trk>
    <name>2021-10-16 13.12.23</name>
    <trkseg>
      <trkpt lat="47.684561228" lon="12.039612327">
        <ele>1073.5</ele>
        <time>2021-10-16T06:34:05Z</time>
      </trkpt>
      <trkpt lat="47.684586374" lon="12.039625235">
        <ele>1073.0</ele>
        <time>2021-10-16T06:36:24Z</time>
      </trkpt>
      <trkpt lat="47.684575729" lon="12.039626325">
        <ele>1073.0</ele>
        <time>2021-10-16T06:36:45Z</time>
      </trkpt>
      <trkpt lat="47.684581513" lon="12.039535716">
        <ele>1073.0</ele>
        <time>2021-10-16T06:36:57Z</time>
      </trkpt>
      <trkpt lat="47.684651334" lon="12.039487101">
        <ele>1073.0</ele>
        <time>2021-10-16T06:37:53Z</time>
      </trkpt>
      <trkpt lat="47.684693662" lon="12.039387105">
        <ele>1077.3</ele>
        <time>2021-10-16T06:38:11Z</time>
      </trkpt>
      <trkpt lat="47.684773793" lon="12.039360953">
        <ele>1079.2</ele>
        <time>2021-10-16T06:38:44Z</time>
      </trkpt>
      <trkpt lat="47.684838250" lon="12.039279817">
        <ele>1081.6</ele>
        <time>2021-10-16T06:39:02Z</time>
      </trkpt>
      <trkpt lat="47.684948137" lon="12.039230531">
        <ele>1086.0</ele>
        <time>2021-10-16T06:39:29Z</time>
      </trkpt>
      <trkpt lat="47.684949227" lon="12.039165571">
        <ele>1087.4</ele>
        <time>2021-10-16T06:39:42Z</time>
      </trkpt>
      <trkpt lat="47.684993818" lon="12.039118968">
        <ele>1089.8</ele>
        <time>2021-10-16T06:39:57Z</time>
      </trkpt>
      <trkpt lat="47.684991639" lon="12.039041519">
        <ele>1091.7</ele>
        <time>2021-10-16T06:40:12Z</time>
      </trkpt>
      <trkpt lat="47.685008151" lon="12.039000615">
        <ele>1093.2</ele>
        <time>2021-10-16T06:40:25Z</time>
      </trkpt>
      <trkpt lat="47.685009241" lon="12.038938086">
        <ele>1095.1</ele>
        <time>2021-10-16T06:40:39Z</time>
      </trkpt>
      <trkpt lat="47.684987783" lon="12.038843455">
        <ele>1097.0</ele>
        <time>2021-10-16T06:40:56Z</time>
      </trkpt>
      <trkpt lat="47.685009241" lon="12.038809173">
        <ele>1098.0</ele>
        <time>2021-10-16T06:41:09Z</time>
      </trkpt>
      <trkpt lat="47.684990214" lon="12.038680259">
        <ele>1100.4</ele>
        <time>2021-10-16T06:41:43Z</time>
      </trkpt>
      <trkpt lat="47.685004631" lon="12.038618317">
        <ele>1100.4</ele>
        <time>2021-10-16T06:42:02Z</time>
      </trkpt>
      <trkpt lat="47.685108064" lon="12.038580431">
        <ele>1104.7</ele>
        <time>2021-10-16T06:42:32Z</time>
      </trkpt>
      <trkpt lat="47.685088366" lon="12.038618317">
        <ele>1104.2</ele>
        <time>2021-10-16T06:48:02Z</time>
      </trkpt>
      <trkpt lat="47.685092641" lon="12.038590405">
        <ele>1104.2</ele>
        <time>2021-10-16T06:48:19Z</time>
      </trkpt>
      <trkpt lat="47.685184255" lon="12.038494684">
        <ele>1104.2</ele>
        <time>2021-10-16T06:49:51Z</time>
      </trkpt>
      <trkpt lat="47.685198002" lon="12.038379433">
        <ele>1104.2</ele>
        <time>2021-10-16T06:50:07Z</time>
      </trkpt>
      <trkpt lat="47.685232283" lon="12.038289746">
        <ele>1104.2</ele>
        <time>2021-10-16T06:50:22Z</time>
      </trkpt>
      <trkpt lat="47.685283246" lon="12.038196791">
        <ele>1115.8</ele>
        <time>2021-10-16T06:50:39Z</time>
      </trkpt>
      <trkpt lat="47.685328089" lon="12.038161755">
        <ele>1117.2</ele>
        <time>2021-10-16T06:50:52Z</time>
      </trkpt>
      <trkpt lat="47.685352312" lon="12.038072320">
        <ele>1119.1</ele>
        <time>2021-10-16T06:51:07Z</time>
      </trkpt>
      <trkpt lat="47.685416182" lon="12.038036697">
        <ele>1121.5</ele>
        <time>2021-10-16T06:51:22Z</time>
      </trkpt>
      <trkpt lat="47.685550461" lon="12.037851205">
        <ele>1127.3</ele>
        <time>2021-10-16T06:51:57Z</time>
      </trkpt>
      <trkpt lat="47.685641823" lon="12.037755735">
        <ele>1130.2</ele>
        <time>2021-10-16T06:52:17Z</time>
      </trkpt>
      <trkpt lat="47.685775850" lon="12.037657667">
        <ele>1135.5</ele>
        <time>2021-10-16T06:52:54Z</time>
      </trkpt>
      <trkpt lat="47.685897555" lon="12.037469326">
        <ele>1138.8</ele>
        <time>2021-10-16T06:53:34Z</time>
      </trkpt>
      <trkpt lat="47.686072988" lon="12.037309566">
        <ele>1143.6</ele>
        <time>2021-10-16T06:54:09Z</time>
      </trkpt>
      <trkpt lat="47.686240962" lon="12.037063893">
        <ele>1148.4</ele>
        <time>2021-10-16T06:54:45Z</time>
      </trkpt>
      <trkpt lat="47.686298210" lon="12.036902793">
        <ele>1150.3</ele>
        <time>2021-10-16T06:55:03Z</time>
      </trkpt>
      <trkpt lat="47.686364008" lon="12.036797097">
        <ele>1152.8</ele>
        <time>2021-10-16T06:55:19Z</time>
      </trkpt>
      <trkpt lat="47.686467776" lon="12.036335338">
        <ele>1156.6</ele>
        <time>2021-10-16T06:56:08Z</time>
      </trkpt>
      <trkpt lat="47.686575064" lon="12.036066530">
        <ele>1160.0</ele>
        <time>2021-10-16T06:56:41Z</time>
      </trkpt>
      <trkpt lat="47.686648238" lon="12.035741229">
        <ele>1162.4</ele>
        <time>2021-10-16T06:57:15Z</time>
      </trkpt>
      <trkpt lat="47.686700542" lon="12.035671156">
        <ele>1164.3</ele>
        <time>2021-10-16T06:57:30Z</time>
      </trkpt>
      <trkpt lat="47.686716635" lon="12.035475103">
        <ele>1166.2</ele>
        <time>2021-10-16T06:57:48Z</time>
      </trkpt>
      <trkpt lat="47.686765585" lon="12.035296988">
        <ele>1166.7</ele>
        <time>2021-10-16T06:58:06Z</time>
      </trkpt>
      <trkpt lat="47.686965661" lon="12.034844784">
        <ele>1170.5</ele>
        <time>2021-10-16T06:58:58Z</time>
      </trkpt>
      <trkpt lat="47.687090803" lon="12.034659879">
        <ele>1172.5</ele>
        <time>2021-10-16T06:59:57Z</time>
      </trkpt>
      <trkpt lat="47.687218878" lon="12.034506993">
        <ele>1173.4</ele>
        <time>2021-10-16T07:00:19Z</time>
      </trkpt>
      <trkpt lat="47.687360197" lon="12.034282945">
        <ele>1176.8</ele>
        <time>2021-10-16T07:02:27Z</time>
      </trkpt>
      <trkpt lat="47.687393893" lon="12.034278167">
        <ele>1176.8</ele>
        <time>2021-10-16T07:06:09Z</time>
      </trkpt>
      <trkpt lat="47.687441586" lon="12.034232486">
        <ele>1176.8</ele>
        <time>2021-10-16T07:06:23Z</time>
      </trkpt>
      <trkpt lat="47.687409483" lon="12.034243299">
        <ele>1176.8</ele>
        <time>2021-10-16T07:07:15Z</time>
      </trkpt>
      <trkpt lat="47.687484333" lon="12.034175741">
        <ele>1178.7</ele>
        <time>2021-10-16T07:07:28Z</time>
      </trkpt>
      <trkpt lat="47.687600171" lon="12.034103656">
        <ele>1182.1</ele>
        <time>2021-10-16T07:07:45Z</time>
      </trkpt>
      <trkpt lat="47.687656833" lon="12.034019418">
        <ele>1184.0</ele>
        <time>2021-10-16T07:08:08Z</time>
      </trkpt>
      <trkpt lat="47.687461451" lon="12.034222679">
        <ele>1181.1</ele>
        <time>2021-10-16T07:08:29Z</time>
      </trkpt>
      <trkpt lat="47.687418871" lon="12.034244640">
        <ele>1178.7</ele>
        <time>2021-10-16T07:08:41Z</time>
      </trkpt>
      <trkpt lat="47.687435383" lon="12.034258218">
        <ele>1178.2</ele>
        <time>2021-10-16T07:14:22Z</time>
      </trkpt>
      <trkpt lat="47.687498499" lon="12.034178088">
        <ele>1178.2</ele>
        <time>2021-10-16T07:16:51Z</time>
      </trkpt>
      <trkpt lat="47.687562453" lon="12.034150260">
        <ele>1180.6</ele>
        <time>2021-10-16T07:17:02Z</time>
      </trkpt>
      <trkpt lat="47.687648619" lon="12.034012210">
        <ele>1182.6</ele>
        <time>2021-10-16T07:17:19Z</time>
      </trkpt>
      <trkpt lat="47.687826399" lon="12.033792520">
        <ele>1186.9</ele>
        <time>2021-10-16T07:17:53Z</time>
      </trkpt>
      <trkpt lat="47.687847773" lon="12.033684896">
        <ele>1188.3</ele>
        <time>2021-10-16T07:19:08Z</time>
      </trkpt>
      <trkpt lat="47.687979117" lon="12.033620188">
        <ele>1189.8</ele>
        <time>2021-10-16T07:19:35Z</time>
      </trkpt>
      <trkpt lat="47.687988840" lon="12.033592025">
        <ele>1190.7</ele>
        <time>2021-10-16T07:19:38Z</time>
      </trkpt>
      <trkpt lat="47.688348172" lon="12.033528574">
        <ele>1196.0</ele>
        <time>2021-10-16T07:20:10Z</time>
      </trkpt>
      <trkpt lat="47.688532658" lon="12.033361355">
        <ele>1197.9</ele>
        <time>2021-10-16T07:20:29Z</time>
      </trkpt>
      <trkpt lat="47.688819319" lon="12.033014931">
        <ele>1199.9</ele>
        <time>2021-10-16T07:21:00Z</time>
      </trkpt>
      <trkpt lat="47.688979078" lon="12.032735310">
        <ele>1201.8</ele>
        <time>2021-10-16T07:21:20Z</time>
      </trkpt>
      <trkpt lat="47.689283425" lon="12.032451834">
        <ele>1200.8</ele>
        <time>2021-10-16T07:21:50Z</time>
      </trkpt>
      <trkpt lat="47.689383002" lon="12.032454182">
        <ele>1201.3</ele>
        <time>2021-10-16T07:22:02Z</time>
      </trkpt>
      <trkpt lat="47.689743675" lon="12.032331135">
        <ele>1205.6</ele>
        <time>2021-10-16T07:22:37Z</time>
      </trkpt>
      <trkpt lat="47.690119688" lon="12.032330213">
        <ele>1211.9</ele>
        <time>2021-10-16T07:23:16Z</time>
      </trkpt>
      <trkpt lat="47.690187749" lon="12.032258129">
        <ele>1213.8</ele>
        <time>2021-10-16T07:23:30Z</time>
      </trkpt>
      <trkpt lat="47.690227563" lon="12.032156456">
        <ele>1214.8</ele>
        <time>2021-10-16T07:23:43Z</time>
      </trkpt>
      <trkpt lat="47.690333845" lon="12.031997703">
        <ele>1217.7</ele>
        <time>2021-10-16T07:24:02Z</time>
      </trkpt>
      <trkpt lat="47.690344490" lon="12.031842889">
        <ele>1219.6</ele>
        <time>2021-10-16T07:24:16Z</time>
      </trkpt>
      <trkpt lat="47.690423280" lon="12.031549523">
        <ele>1225.8</ele>
        <time>2021-10-16T07:24:49Z</time>
      </trkpt>
      <trkpt lat="47.690474745" lon="12.031250456">
        <ele>1230.1</ele>
        <time>2021-10-16T07:25:16Z</time>
      </trkpt>
      <trkpt lat="47.690458987" lon="12.031140067">
        <ele>1231.6</ele>
        <time>2021-10-16T07:25:25Z</time>
      </trkpt>
      <trkpt lat="47.690455383" lon="12.030893555">
        <ele>1234.0</ele>
        <time>2021-10-16T07:25:45Z</time>
      </trkpt>
      <trkpt lat="47.690469380" lon="12.030881317">
        <ele>1235.0</ele>
        <time>2021-10-16T07:25:56Z</time>
      </trkpt>
      <trkpt lat="47.690457394" lon="12.030895399">
        <ele>1235.4</ele>
        <time>2021-10-16T07:26:35Z</time>
      </trkpt>
      <trkpt lat="47.690422526" lon="12.030739663">
        <ele>1238.3</ele>
        <time>2021-10-16T07:28:36Z</time>
      </trkpt>
      <trkpt lat="47.690370474" lon="12.030631788">
        <ele>1239.3</ele>
        <time>2021-10-16T07:28:50Z</time>
      </trkpt>
      <trkpt lat="47.690359913" lon="12.030502372">
        <ele>1240.2</ele>
        <time>2021-10-16T07:29:02Z</time>
      </trkpt>
      <trkpt lat="47.690375755" lon="12.030391395">
        <ele>1242.6</ele>
        <time>2021-10-16T07:29:44Z</time>
      </trkpt>
      <trkpt lat="47.690372402" lon="12.030258542">
        <ele>1243.6</ele>
        <time>2021-10-16T07:29:56Z</time>
      </trkpt>
      <trkpt lat="47.690291181" lon="12.030100375">
        <ele>1246.0</ele>
        <time>2021-10-16T07:30:10Z</time>
      </trkpt>
      <trkpt lat="47.690192023" lon="12.029770380">
        <ele>1250.3</ele>
        <time>2021-10-16T07:30:43Z</time>
      </trkpt>
      <trkpt lat="47.690161932" lon="12.029503081">
        <ele>1254.2</ele>
        <time>2021-10-16T07:31:11Z</time>
      </trkpt>
      <trkpt lat="47.690163944" lon="12.029343490">
        <ele>1256.6</ele>
        <time>2021-10-16T07:31:28Z</time>
      </trkpt>
      <trkpt lat="47.690255977" lon="12.029287331">
        <ele>1259.5</ele>
        <time>2021-10-16T07:31:44Z</time>
      </trkpt>
      <trkpt lat="47.690292858" lon="12.028988935">
        <ele>1265.2</ele>
        <time>2021-10-16T07:32:13Z</time>
      </trkpt>
      <trkpt lat="47.690303000" lon="12.028702106">
        <ele>1268.6</ele>
        <time>2021-10-16T07:32:40Z</time>
      </trkpt>
      <trkpt lat="47.690349100" lon="12.028632285">
        <ele>1271.0</ele>
        <time>2021-10-16T07:32:54Z</time>
      </trkpt>
      <trkpt lat="47.690606173" lon="12.028901596">
        <ele>1283.5</ele>
        <time>2021-10-16T07:33:56Z</time>
      </trkpt>
      <trkpt lat="47.690665768" lon="12.028905535">
        <ele>1286.4</ele>
        <time>2021-10-16T07:34:10Z</time>
      </trkpt>
      <trkpt lat="47.690829132" lon="12.029063115">
        <ele>1291.7</ele>
        <time>2021-10-16T07:34:42Z</time>
      </trkpt>
      <trkpt lat="47.691035662" lon="12.029104102">
        <ele>1296.0</ele>
        <time>2021-10-16T07:35:11Z</time>
      </trkpt>
      <trkpt lat="47.691078996" lon="12.029076442">
        <ele>1297.4</ele>
        <time>2021-10-16T07:35:24Z</time>
      </trkpt>
      <trkpt lat="47.691128198" lon="12.029123548">
        <ele>1297.9</ele>
        <time>2021-10-16T07:35:54Z</time>
      </trkpt>
      <trkpt lat="47.691228026" lon="12.029099995">
        <ele>1299.8</ele>
        <time>2021-10-16T07:36:11Z</time>
      </trkpt>
      <trkpt lat="47.691327101" lon="12.029169062">
        <ele>1302.7</ele>
        <time>2021-10-16T07:36:29Z</time>
      </trkpt>
      <trkpt lat="47.691361634" lon="12.029209966">
        <ele>1303.2</ele>
        <time>2021-10-16T07:36:35Z</time>
      </trkpt>
      <trkpt lat="47.691580486" lon="12.029416580">
        <ele>1312.3</ele>
        <time>2021-10-16T07:37:31Z</time>
      </trkpt>
      <trkpt lat="47.691768911" lon="12.029633755">
        <ele>1315.7</ele>
        <time>2021-10-16T07:38:03Z</time>
      </trkpt>
      <trkpt lat="47.691808976" lon="12.029653285">
        <ele>1316.2</ele>
        <time>2021-10-16T07:38:17Z</time>
      </trkpt>
      <trkpt lat="47.691894639" lon="12.029573237">
        <ele>1317.6</ele>
        <time>2021-10-16T07:38:32Z</time>
      </trkpt>
      <trkpt lat="47.691954235" lon="12.029390177">
        <ele>1322.0</ele>
        <time>2021-10-16T07:39:02Z</time>
      </trkpt>
      <trkpt lat="47.691996563" lon="12.029324966">
        <ele>1324.8</ele>
        <time>2021-10-16T07:39:18Z</time>
      </trkpt>
      <trkpt lat="47.692051800" lon="12.029296383">
        <ele>1327.2</ele>
        <time>2021-10-16T07:39:32Z</time>
      </trkpt>
      <trkpt lat="47.692149868" lon="12.029305939">
        <ele>1330.6</ele>
        <time>2021-10-16T07:39:47Z</time>
      </trkpt>
      <trkpt lat="47.692200914" lon="12.029219186">
        <ele>1332.0</ele>
        <time>2021-10-16T07:40:02Z</time>
      </trkpt>
      <trkpt lat="47.692239806" lon="12.028949540">
        <ele>1337.3</ele>
        <time>2021-10-16T07:40:31Z</time>
      </trkpt>
      <trkpt lat="47.692328151" lon="12.028866727">
        <ele>1340.2</ele>
        <time>2021-10-16T07:40:48Z</time>
      </trkpt>
      <trkpt lat="47.692532837" lon="12.028952641">
        <ele>1345.0</ele>
        <time>2021-10-16T07:41:19Z</time>
      </trkpt>
      <trkpt lat="47.692608442" lon="12.029026570">
        <ele>1347.9</ele>
        <time>2021-10-16T07:41:34Z</time>
      </trkpt>
      <trkpt lat="47.692679437" lon="12.029064288">
        <ele>1350.8</ele>
        <time>2021-10-16T07:41:48Z</time>
      </trkpt>
      <trkpt lat="47.692714976" lon="12.029016931">
        <ele>1353.7</ele>
        <time>2021-10-16T07:42:02Z</time>
      </trkpt>
      <trkpt lat="47.692809776" lon="12.029060936">
        <ele>1359.4</ele>
        <time>2021-10-16T07:42:28Z</time>
      </trkpt>
      <trkpt lat="47.692883452" lon="12.029123297">
        <ele>1361.4</ele>
        <time>2021-10-16T07:42:42Z</time>
      </trkpt>
      <trkpt lat="47.693150416" lon="12.029136373">
        <ele>1367.6</ele>
        <time>2021-10-16T07:43:31Z</time>
      </trkpt>
      <trkpt lat="47.693448225" lon="12.029377604">
        <ele>1378.2</ele>
        <time>2021-10-16T07:44:35Z</time>
      </trkpt>
      <trkpt lat="47.693526177" lon="12.029422950">
        <ele>1379.6</ele>
        <time>2021-10-16T07:44:50Z</time>
      </trkpt>
      <trkpt lat="47.693691300" lon="12.029472403">
        <ele>1384.4</ele>
        <time>2021-10-16T07:45:22Z</time>
      </trkpt>
      <trkpt lat="47.693714267" lon="12.029405851">
        <ele>1385.9</ele>
        <time>2021-10-16T07:45:33Z</time>
      </trkpt>
      <trkpt lat="47.693780232" lon="12.029386237">
        <ele>1388.8</ele>
        <time>2021-10-16T07:45:47Z</time>
      </trkpt>
      <trkpt lat="47.693804707" lon="12.029331587">
        <ele>1391.2</ele>
        <time>2021-10-16T07:46:00Z</time>
      </trkpt>
      <trkpt lat="47.693804037" lon="12.029241985">
        <ele>1392.6</ele>
        <time>2021-10-16T07:46:13Z</time>
      </trkpt>
      <trkpt lat="47.693839995" lon="12.029076191">
        <ele>1397.4</ele>
        <time>2021-10-16T07:46:41Z</time>
      </trkpt>
      <trkpt lat="47.693843348" lon="12.028938057">
        <ele>1400.8</ele>
        <time>2021-10-16T07:47:00Z</time>
      </trkpt>
      <trkpt lat="47.693887856" lon="12.028912576">
        <ele>1403.2</ele>
        <time>2021-10-16T07:47:14Z</time>
      </trkpt>
      <trkpt lat="47.694168147" lon="12.029196219">
        <ele>1408.0</ele>
        <time>2021-10-16T07:47:50Z</time>
      </trkpt>
      <trkpt lat="47.694397224" lon="12.029460082">
        <ele>1413.8</ele>
        <time>2021-10-16T07:48:21Z</time>
      </trkpt>
      <trkpt lat="47.694606520" lon="12.029622691">
        <ele>1416.6</ele>
        <time>2021-10-16T07:48:43Z</time>
      </trkpt>
      <trkpt lat="47.694905000" lon="12.029702486">
        <ele>1422.4</ele>
        <time>2021-10-16T07:49:19Z</time>
      </trkpt>
      <trkpt lat="47.695076410" lon="12.029778343">
        <ele>1425.3</ele>
        <time>2021-10-16T07:49:37Z</time>
      </trkpt>
      <trkpt lat="47.695280509" lon="12.029947825">
        <ele>1427.2</ele>
        <time>2021-10-16T07:49:56Z</time>
      </trkpt>
      <trkpt lat="47.695482178" lon="12.030222248">
        <ele>1428.2</ele>
        <time>2021-10-16T07:50:18Z</time>
      </trkpt>
      <trkpt lat="47.695834888" lon="12.030754667">
        <ele>1433.9</ele>
        <time>2021-10-16T07:51:02Z</time>
      </trkpt>
      <trkpt lat="47.695866572" lon="12.031030515">
        <ele>1435.9</ele>
        <time>2021-10-16T07:51:21Z</time>
      </trkpt>
      <trkpt lat="47.696138732" lon="12.031625211">
        <ele>1446.4</ele>
        <time>2021-10-16T07:52:14Z</time>
      </trkpt>
      <trkpt lat="47.696219701" lon="12.031698720">
        <ele>1448.8</ele>
        <time>2021-10-16T07:52:25Z</time>
      </trkpt>
      <trkpt lat="47.696394799" lon="12.031625127">
        <ele>1451.2</ele>
        <time>2021-10-16T07:52:43Z</time>
      </trkpt>
      <trkpt lat="47.696449617" lon="12.031583218">
        <ele>1451.7</ele>
        <time>2021-10-16T07:52:54Z</time>
      </trkpt>
      <trkpt lat="47.696589678" lon="12.031666618">
        <ele>1451.7</ele>
        <time>2021-10-16T07:53:49Z</time>
      </trkpt>
      <trkpt lat="47.696708366" lon="12.031666702">
        <ele>1453.2</ele>
        <time>2021-10-16T07:54:06Z</time>
      </trkpt>
      <trkpt lat="47.696776930" lon="12.031753622">
        <ele>1455.6</ele>
        <time>2021-10-16T07:54:20Z</time>
      </trkpt>
      <trkpt lat="47.696827557" lon="12.031902820">
        <ele>1458.5</ele>
        <time>2021-10-16T07:54:36Z</time>
      </trkpt>
      <trkpt lat="47.696888074" lon="12.032013377">
        <ele>1460.4</ele>
        <time>2021-10-16T07:54:51Z</time>
      </trkpt>
      <trkpt lat="47.697052108" lon="12.032041708">
        <ele>1461.3</ele>
        <time>2021-10-16T07:55:10Z</time>
      </trkpt>
      <trkpt lat="47.697229553" lon="12.032013461">
        <ele>1464.2</ele>
        <time>2021-10-16T07:55:42Z</time>
      </trkpt>
      <trkpt lat="47.697348408" lon="12.032046402">
        <ele>1467.1</ele>
        <time>2021-10-16T07:55:58Z</time>
      </trkpt>
      <trkpt lat="47.697505737" lon="12.032030979">
        <ele>1469.0</ele>
        <time>2021-10-16T07:56:16Z</time>
      </trkpt>
      <trkpt lat="47.697699610" lon="12.031874657">
        <ele>1473.8</ele>
        <time>2021-10-16T07:56:50Z</time>
      </trkpt>
      <trkpt lat="47.697758284" lon="12.031891672">
        <ele>1476.7</ele>
        <time>2021-10-16T07:57:07Z</time>
      </trkpt>
      <trkpt lat="47.697883677" lon="12.031975659">
        <ele>1482.0</ele>
        <time>2021-10-16T07:57:35Z</time>
      </trkpt>
      <trkpt lat="47.697957354" lon="12.031992925">
        <ele>1484.9</ele>
        <time>2021-10-16T07:57:50Z</time>
      </trkpt>
      <trkpt lat="47.698030612" lon="12.031960907">
        <ele>1487.8</ele>
        <time>2021-10-16T07:58:06Z</time>
      </trkpt>
      <trkpt lat="47.698133709" lon="12.031856384">
        <ele>1491.6</ele>
        <time>2021-10-16T07:58:33Z</time>
      </trkpt>
      <trkpt lat="47.698217277" lon="12.031704253">
        <ele>1496.9</ele>
        <time>2021-10-16T07:59:01Z</time>
      </trkpt>
      <trkpt lat="47.698278045" lon="12.031642562">
        <ele>1499.3</ele>
        <time>2021-10-16T07:59:16Z</time>
      </trkpt>
      <trkpt lat="47.698248541" lon="12.031532843">
        <ele>1502.7</ele>
        <time>2021-10-16T07:59:30Z</time>
      </trkpt>
      <trkpt lat="47.698300928" lon="12.031461513">
        <ele>1505.1</ele>
        <time>2021-10-16T07:59:46Z</time>
      </trkpt>
      <trkpt lat="47.698360859" lon="12.031479701">
        <ele>1507.5</ele>
        <time>2021-10-16T08:00:00Z</time>
      </trkpt>
      <trkpt lat="47.698412742" lon="12.031445168">
        <ele>1509.9</ele>
        <time>2021-10-16T08:00:15Z</time>
      </trkpt>
      <trkpt lat="47.698432356" lon="12.031369144">
        <ele>1511.8</ele>
        <time>2021-10-16T08:00:27Z</time>
      </trkpt>
      <trkpt lat="47.698526485" lon="12.031374509">
        <ele>1516.1</ele>
        <time>2021-10-16T08:00:57Z</time>
      </trkpt>
      <trkpt lat="47.698628660" lon="12.031183401">
        <ele>1521.4</ele>
        <time>2021-10-16T08:01:31Z</time>
      </trkpt>
      <trkpt lat="47.698689597" lon="12.031146437">
        <ele>1523.3</ele>
        <time>2021-10-16T08:01:45Z</time>
      </trkpt>
      <trkpt lat="47.698847596" lon="12.031183066">
        <ele>1531.0</ele>
        <time>2021-10-16T08:02:29Z</time>
      </trkpt>
      <trkpt lat="47.698924961" lon="12.031281218">
        <ele>1535.8</ele>
        <time>2021-10-16T08:02:58Z</time>
      </trkpt>
      <trkpt lat="47.699114894" lon="12.031378951">
        <ele>1544.0</ele>
        <time>2021-10-16T08:03:48Z</time>
      </trkpt>
      <trkpt lat="47.699109865" lon="12.031282727">
        <ele>1545.9</ele>
        <time>2021-10-16T08:04:04Z</time>
      </trkpt>
      <trkpt lat="47.699151943" lon="12.031280296">
        <ele>1548.3</ele>
        <time>2021-10-16T08:04:19Z</time>
      </trkpt>
      <trkpt lat="47.699210700" lon="12.031325558">
        <ele>1550.7</ele>
        <time>2021-10-16T08:04:35Z</time>
      </trkpt>
      <trkpt lat="47.699255962" lon="12.031410048">
        <ele>1553.2</ele>
        <time>2021-10-16T08:04:51Z</time>
      </trkpt>
      <trkpt lat="47.699200977" lon="12.031618841">
        <ele>1556.5</ele>
        <time>2021-10-16T08:05:20Z</time>
      </trkpt>
      <trkpt lat="47.699303068" lon="12.031600820">
        <ele>1560.8</ele>
        <time>2021-10-16T08:06:05Z</time>
      </trkpt>
      <trkpt lat="47.699521249" lon="12.031518761">
        <ele>1567.1</ele>
        <time>2021-10-16T08:06:52Z</time>
      </trkpt>
      <trkpt lat="47.699566092" lon="12.031549774">
        <ele>1570.0</ele>
        <time>2021-10-16T08:07:06Z</time>
      </trkpt>
      <trkpt lat="47.699712021" lon="12.031705929">
        <ele>1578.6</ele>
        <time>2021-10-16T08:07:44Z</time>
      </trkpt>
      <trkpt lat="47.699797684" lon="12.031854037">
        <ele>1583.9</ele>
        <time>2021-10-16T08:08:17Z</time>
      </trkpt>
      <trkpt lat="47.699964987" lon="12.032042127">
        <ele>1592.6</ele>
        <time>2021-10-16T08:09:07Z</time>
      </trkpt>
      <trkpt lat="47.699986864" lon="12.032096190">
        <ele>1594.5</ele>
        <time>2021-10-16T08:09:21Z</time>
      </trkpt>
      <trkpt lat="47.700116532" lon="12.032170622">
        <ele>1599.3</ele>
        <time>2021-10-16T08:09:52Z</time>
      </trkpt>
      <trkpt lat="47.700340832" lon="12.032223763">
        <ele>1607.9</ele>
        <time>2021-10-16T08:10:35Z</time>
      </trkpt>
      <trkpt lat="47.700457592" lon="12.032316718">
        <ele>1613.2</ele>
        <time>2021-10-16T08:11:03Z</time>
      </trkpt>
      <trkpt lat="47.700766381" lon="12.032165090">
        <ele>1617.6</ele>
        <time>2021-10-16T08:11:45Z</time>
      </trkpt>
      <trkpt lat="47.700828491" lon="12.032018239">
        <ele>1620.0</ele>
        <time>2021-10-16T08:12:04Z</time>
      </trkpt>
      <trkpt lat="47.700806279" lon="12.031861832">
        <ele>1618.5</ele>
        <time>2021-10-16T08:12:25Z</time>
      </trkpt>
      <trkpt lat="47.700835615" lon="12.031618422">
        <ele>1617.1</ele>
        <time>2021-10-16T08:12:43Z</time>
      </trkpt>
      <trkpt lat="47.700897809" lon="12.031451622">
        <ele>1616.6</ele>
        <time>2021-10-16T08:13:04Z</time>
      </trkpt>
      <trkpt lat="47.700907951" lon="12.031133780">
        <ele>1618.5</ele>
        <time>2021-10-16T08:13:30Z</time>
      </trkpt>
      <trkpt lat="47.700959332" lon="12.031030348">
        <ele>1620.0</ele>
        <time>2021-10-16T08:13:42Z</time>
      </trkpt>
      <trkpt lat="47.701010713" lon="12.030862207">
        <ele>1622.4</ele>
        <time>2021-10-16T08:14:00Z</time>
      </trkpt>
      <trkpt lat="47.701051785" lon="12.030866062">
        <ele>1624.3</ele>
        <time>2021-10-16T08:14:13Z</time>
      </trkpt>
      <trkpt lat="47.701108111" lon="12.031049877">
        <ele>1627.2</ele>
        <time>2021-10-16T08:14:40Z</time>
      </trkpt>
      <trkpt lat="47.701095203" lon="12.031290270">
        <ele>1629.1</ele>
        <time>2021-10-16T08:14:56Z</time>
      </trkpt>
      <trkpt lat="47.701040218" lon="12.031527897">
        <ele>1629.6</ele>
        <time>2021-10-16T08:15:14Z</time>
      </trkpt>
      <trkpt lat="47.701012557" lon="12.031859653">
        <ele>1632.9</ele>
        <time>2021-10-16T08:15:48Z</time>
      </trkpt>
      <trkpt lat="47.701026974" lon="12.031961996">
        <ele>1635.8</ele>
        <time>2021-10-16T08:16:03Z</time>
      </trkpt>
      <trkpt lat="47.701005936" lon="12.031990914">
        <ele>1637.3</ele>
        <time>2021-10-16T08:16:16Z</time>
      </trkpt>
      <trkpt lat="47.700997805" lon="12.032073392">
        <ele>1636.3</ele>
        <time>2021-10-16T08:18:53Z</time>
      </trkpt>
      <trkpt lat="47.700989507" lon="12.032042211">
        <ele>1636.3</ele>
        <time>2021-10-16T08:20:14Z</time>
      </trkpt>
      <trkpt lat="47.700989339" lon="12.032103315">
        <ele>1636.3</ele>
        <time>2021-10-16T08:20:28Z</time>
      </trkpt>
      <trkpt lat="47.701031501" lon="12.032162910">
        <ele>1642.1</ele>
        <time>2021-10-16T08:21:16Z</time>
      </trkpt>
      <trkpt lat="47.701035105" lon="12.032303643">
        <ele>1645.4</ele>
        <time>2021-10-16T08:21:47Z</time>
      </trkpt>
      <trkpt lat="47.700993614" lon="12.032370195">
        <ele>1645.4</ele>
        <time>2021-10-16T08:22:01Z</time>
      </trkpt>
      <trkpt lat="47.700987496" lon="12.032463988">
        <ele>1645.4</ele>
        <time>2021-10-16T08:22:14Z</time>
      </trkpt>
      <trkpt lat="47.700903425" lon="12.032552920">
        <ele>1649.8</ele>
        <time>2021-10-16T08:22:39Z</time>
      </trkpt>
      <trkpt lat="47.700837124" lon="12.032729946">
        <ele>1657.9</ele>
        <time>2021-10-16T08:23:22Z</time>
      </trkpt>
      <trkpt lat="47.700793622" lon="12.032795744">
        <ele>1660.8</ele>
        <time>2021-10-16T08:23:38Z</time>
      </trkpt>
      <trkpt lat="47.700763866" lon="12.032916192">
        <ele>1666.6</ele>
        <time>2021-10-16T08:24:04Z</time>
      </trkpt>
      <trkpt lat="47.700770069" lon="12.032966567">
        <ele>1668.0</ele>
        <time>2021-10-16T08:24:19Z</time>
      </trkpt>
      <trkpt lat="47.700727489" lon="12.033040244">
        <ele>1670.9</ele>
        <time>2021-10-16T08:24:37Z</time>
      </trkpt>
      <trkpt lat="47.700694296" lon="12.033160189">
        <ele>1675.7</ele>
        <time>2021-10-16T08:25:10Z</time>
      </trkpt>
      <trkpt lat="47.700771159" lon="12.033452969">
        <ele>1682.9</ele>
        <time>2021-10-16T08:25:59Z</time>
      </trkpt>
      <trkpt lat="47.700879201" lon="12.033750610">
        <ele>1688.2</ele>
        <time>2021-10-16T08:27:50Z</time>
      </trkpt>
      <trkpt lat="47.700870736" lon="12.033707946">
        <ele>1688.2</ele>
        <time>2021-10-16T08:28:07Z</time>
      </trkpt>
      <trkpt lat="47.700871238" lon="12.033729740">
        <ele>1688.2</ele>
        <time>2021-10-16T08:30:23Z</time>
      </trkpt>
      <trkpt lat="47.700880542" lon="12.033719095">
        <ele>1688.2</ele>
        <time>2021-10-16T08:32:13Z</time>
      </trkpt>
      <trkpt lat="47.700872328" lon="12.033861503">
        <ele>1684.8</ele>
        <time>2021-10-16T08:32:59Z</time>
      </trkpt>
      <trkpt lat="47.700891690" lon="12.033904251">
        <ele>1682.9</ele>
        <time>2021-10-16T08:33:14Z</time>
      </trkpt>
      <trkpt lat="47.700881129" lon="12.033995278">
        <ele>1681.0</ele>
        <time>2021-10-16T08:33:23Z</time>
      </trkpt>
      <trkpt lat="47.700794376" lon="12.034001984">
        <ele>1678.6</ele>
        <time>2021-10-16T08:33:38Z</time>
      </trkpt>
      <trkpt lat="47.700774511" lon="12.034046827">
        <ele>1677.2</ele>
        <time>2021-10-16T08:33:49Z</time>
      </trkpt>
      <trkpt lat="47.700810470" lon="12.034122767">
        <ele>1674.8</ele>
        <time>2021-10-16T08:34:03Z</time>
      </trkpt>
      <trkpt lat="47.700809883" lon="12.034262493">
        <ele>1671.9</ele>
        <time>2021-10-16T08:34:17Z</time>
      </trkpt>
      <trkpt lat="47.700867467" lon="12.034415463">
        <ele>1671.9</ele>
        <time>2021-10-16T08:34:31Z</time>
      </trkpt>
      <trkpt lat="47.700875848" lon="12.034510849">
        <ele>1676.2</ele>
        <time>2021-10-16T08:35:24Z</time>
      </trkpt>
      <trkpt lat="47.700915076" lon="12.034671279">
        <ele>1679.1</ele>
        <time>2021-10-16T08:35:53Z</time>
      </trkpt>
      <trkpt lat="47.700942652" lon="12.034757109">
        <ele>1682.0</ele>
        <time>2021-10-16T08:36:12Z</time>
      </trkpt>
      <trkpt lat="47.700983472" lon="12.034816453">
        <ele>1684.4</ele>
        <time>2021-10-16T08:36:25Z</time>
      </trkpt>
      <trkpt lat="47.700987328" lon="12.034866074">
        <ele>1686.3</ele>
        <time>2021-10-16T08:36:36Z</time>
      </trkpt>
      <trkpt lat="47.701059580" lon="12.035040585">
        <ele>1693.0</ele>
        <time>2021-10-16T08:37:20Z</time>
      </trkpt>
      <trkpt lat="47.701087492" lon="12.035063300">
        <ele>1694.5</ele>
        <time>2021-10-16T08:37:38Z</time>
      </trkpt>
      <trkpt lat="47.701090174" lon="12.035115771">
        <ele>1695.4</ele>
        <time>2021-10-16T08:37:53Z</time>
      </trkpt>
      <trkpt lat="47.701160247" lon="12.035124320">
        <ele>1699.3</ele>
        <time>2021-10-16T08:38:58Z</time>
      </trkpt>
      <trkpt lat="47.701167120" lon="12.035247283">
        <ele>1699.3</ele>
        <time>2021-10-16T08:46:01Z</time>
      </trkpt>
      <trkpt lat="47.701227972" lon="12.035382651">
        <ele>1699.3</ele>
        <time>2021-10-16T08:46:31Z</time>
      </trkpt>
      <trkpt lat="47.701273402" lon="12.035418609">
        <ele>1699.3</ele>
        <time>2021-10-16T08:46:48Z</time>
      </trkpt>
      <trkpt lat="47.701295363" lon="12.035462782">
        <ele>1710.8</ele>
        <time>2021-10-16T08:47:01Z</time>
      </trkpt>
      <trkpt lat="47.701341882" lon="12.035416514">
        <ele>1714.7</ele>
        <time>2021-10-16T08:47:29Z</time>
      </trkpt>
      <trkpt lat="47.701358562" lon="12.035433613">
        <ele>1715.1</ele>
        <time>2021-10-16T08:47:41Z</time>
      </trkpt>
      <trkpt lat="47.701346073" lon="12.035521036">
        <ele>1713.2</ele>
        <time>2021-10-16T08:49:37Z</time>
      </trkpt>
      <trkpt lat="47.701265775" lon="12.035601502">
        <ele>1711.8</ele>
        <time>2021-10-16T08:49:50Z</time>
      </trkpt>
      <trkpt lat="47.701227050" lon="12.035709210">
        <ele>1710.8</ele>
        <time>2021-10-16T08:50:26Z</time>
      </trkpt>
      <trkpt lat="47.701238701" lon="12.035789760">
        <ele>1710.3</ele>
        <time>2021-10-16T08:51:10Z</time>
      </trkpt>
      <trkpt lat="47.701210957" lon="12.035968462">
        <ele>1708.4</ele>
        <time>2021-10-16T08:51:32Z</time>
      </trkpt>
      <trkpt lat="47.701061508" lon="12.036107015">
        <ele>1696.9</ele>
        <time>2021-10-16T08:52:30Z</time>
      </trkpt>
      <trkpt lat="47.701112973" lon="12.036265601">
        <ele>1692.1</ele>
        <time>2021-10-16T08:52:57Z</time>
      </trkpt>
      <trkpt lat="47.701155469" lon="12.036305163">
        <ele>1689.7</ele>
        <time>2021-10-16T08:53:10Z</time>
      </trkpt>
      <trkpt lat="47.701195031" lon="12.036449835">
        <ele>1685.3</ele>
        <time>2021-10-16T08:53:39Z</time>
      </trkpt>
      <trkpt lat="47.701179106" lon="12.036548154">
        <ele>1682.9</ele>
        <time>2021-10-16T08:53:53Z</time>
      </trkpt>
      <trkpt lat="47.701214729" lon="12.036630884">
        <ele>1680.5</ele>
        <time>2021-10-16T08:54:06Z</time>
      </trkpt>
      <trkpt lat="47.701203497" lon="12.036767174">
        <ele>1677.6</ele>
        <time>2021-10-16T08:54:20Z</time>
      </trkpt>
      <trkpt lat="47.701240294" lon="12.036859207">
        <ele>1676.2</ele>
        <time>2021-10-16T08:54:29Z</time>
      </trkpt>
      <trkpt lat="47.701275330" lon="12.037023492">
        <ele>1673.8</ele>
        <time>2021-10-16T08:54:43Z</time>
      </trkpt>
      <trkpt lat="47.701284466" lon="12.037273943">
        <ele>1671.4</ele>
        <time>2021-10-16T08:55:02Z</time>
      </trkpt>
      <trkpt lat="47.701192433" lon="12.037908621">
        <ele>1664.2</ele>
        <time>2021-10-16T08:55:55Z</time>
      </trkpt>
      <trkpt lat="47.701221434" lon="12.038096040">
        <ele>1663.7</ele>
        <time>2021-10-16T08:56:10Z</time>
      </trkpt>
      <trkpt lat="47.701204587" lon="12.038217159">
        <ele>1663.2</ele>
        <time>2021-10-16T08:56:24Z</time>
      </trkpt>
      <trkpt lat="47.701185727" lon="12.038709177">
        <ele>1657.0</ele>
        <time>2021-10-16T08:57:14Z</time>
      </trkpt>
      <trkpt lat="47.701185560" lon="12.038931800">
        <ele>1660.8</ele>
        <time>2021-10-16T08:58:02Z</time>
      </trkpt>
      <trkpt lat="47.701275330" lon="12.038877066">
        <ele>1664.2</ele>
        <time>2021-10-16T08:58:32Z</time>
      </trkpt>
      <trkpt lat="47.701203246" lon="12.039041435">
        <ele>1669.0</ele>
        <time>2021-10-16T08:59:14Z</time>
      </trkpt>
      <trkpt lat="47.701176591" lon="12.039019559">
        <ele>1670.4</ele>
        <time>2021-10-16T08:59:26Z</time>
      </trkpt>
      <trkpt lat="47.701135017" lon="12.039027270">
        <ele>1673.8</ele>
        <time>2021-10-16T08:59:52Z</time>
      </trkpt>
      <trkpt lat="47.701078774" lon="12.039095582">
        <ele>1676.2</ele>
        <time>2021-10-16T09:00:15Z</time>
      </trkpt>
      <trkpt lat="47.701054467" lon="12.039098600">
        <ele>1678.1</ele>
        <time>2021-10-16T09:00:28Z</time>
      </trkpt>
      <trkpt lat="47.701061424" lon="12.039222484">
        <ele>1680.5</ele>
        <time>2021-10-16T09:01:00Z</time>
      </trkpt>
      <trkpt lat="47.701044828" lon="12.039243858">
        <ele>1681.5</ele>
        <time>2021-10-16T09:01:29Z</time>
      </trkpt>
      <trkpt lat="47.701057149" lon="12.039315440">
        <ele>1679.1</ele>
        <time>2021-10-16T09:04:51Z</time>
      </trkpt>
      <trkpt lat="47.701070895" lon="12.039302951">
        <ele>1679.1</ele>
        <time>2021-10-16T09:22:58Z</time>
      </trkpt>
      <trkpt lat="47.701064944" lon="12.039172947">
        <ele>1679.1</ele>
        <time>2021-10-16T09:24:10Z</time>
      </trkpt>
      <trkpt lat="47.701101573" lon="12.039065240">
        <ele>1679.1</ele>
        <time>2021-10-16T09:24:47Z</time>
      </trkpt>
      <trkpt lat="47.701223362" lon="12.038989468">
        <ele>1668.5</ele>
        <time>2021-10-16T09:25:39Z</time>
      </trkpt>
      <trkpt lat="47.701274827" lon="12.038911851">
        <ele>1666.6</ele>
        <time>2021-10-16T09:25:50Z</time>
      </trkpt>
      <trkpt lat="47.701264685" lon="12.038894836">
        <ele>1664.7</ele>
        <time>2021-10-16T09:26:01Z</time>
      </trkpt>
      <trkpt lat="47.701181704" lon="12.038952755">
        <ele>1659.8</ele>
        <time>2021-10-16T09:27:27Z</time>
      </trkpt>
      <trkpt lat="47.701147422" lon="12.038920149">
        <ele>1658.4</ele>
        <time>2021-10-16T09:27:46Z</time>
      </trkpt>
      <trkpt lat="47.701122360" lon="12.038925011">
        <ele>1657.5</ele>
        <time>2021-10-16T09:28:02Z</time>
      </trkpt>
      <trkpt lat="47.701084055" lon="12.038993826">
        <ele>1656.5</ele>
        <time>2021-10-16T09:28:19Z</time>
      </trkpt>
      <trkpt lat="47.701010043" lon="12.038989468">
        <ele>1654.1</ele>
        <time>2021-10-16T09:28:33Z</time>
      </trkpt>
      <trkpt lat="47.700840477" lon="12.039321140">
        <ele>1643.0</ele>
        <time>2021-10-16T09:29:50Z</time>
      </trkpt>
      <trkpt lat="47.700778870" lon="12.039403282">
        <ele>1640.6</ele>
        <time>2021-10-16T09:30:02Z</time>
      </trkpt>
      <trkpt lat="47.700660937" lon="12.039734283">
        <ele>1633.9</ele>
        <time>2021-10-16T09:30:49Z</time>
      </trkpt>
      <trkpt lat="47.700472763" lon="12.039979957">
        <ele>1621.9</ele>
        <time>2021-10-16T09:31:38Z</time>
      </trkpt>
      <trkpt lat="47.700224994" lon="12.040594267">
        <ele>1602.2</ele>
        <time>2021-10-16T09:33:22Z</time>
      </trkpt>
      <trkpt lat="47.700195154" lon="12.040717984">
        <ele>1599.8</ele>
        <time>2021-10-16T09:33:36Z</time>
      </trkpt>
      <trkpt lat="47.700123908" lon="12.040899871">
        <ele>1594.0</ele>
        <time>2021-10-16T09:34:04Z</time>
      </trkpt>
      <trkpt lat="47.700090967" lon="12.041059378">
        <ele>1591.6</ele>
        <time>2021-10-16T09:34:20Z</time>
      </trkpt>
      <trkpt lat="47.700074622" lon="12.041253503">
        <ele>1587.3</ele>
        <time>2021-10-16T09:34:48Z</time>
      </trkpt>
      <trkpt lat="47.699879995" lon="12.041892204">
        <ele>1568.5</ele>
        <time>2021-10-16T09:36:34Z</time>
      </trkpt>
      <trkpt lat="47.699847808" lon="12.041926151">
        <ele>1565.2</ele>
        <time>2021-10-16T09:36:53Z</time>
      </trkpt>
      <trkpt lat="47.699767090" lon="12.041956242">
        <ele>1559.9</ele>
        <time>2021-10-16T09:37:22Z</time>
      </trkpt>
      <trkpt lat="47.699744962" lon="12.042003097">
        <ele>1557.0</ele>
        <time>2021-10-16T09:37:36Z</time>
      </trkpt>
      <trkpt lat="47.699738508" lon="12.042055400">
        <ele>1556.0</ele>
        <time>2021-10-16T09:38:01Z</time>
      </trkpt>
      <trkpt lat="47.699692491" lon="12.042290512">
        <ele>1550.3</ele>
        <time>2021-10-16T09:38:33Z</time>
      </trkpt>
      <trkpt lat="47.699635411" lon="12.042388916">
        <ele>1546.9</ele>
        <time>2021-10-16T09:38:51Z</time>
      </trkpt>
      <trkpt lat="47.699650079" lon="12.042527972">
        <ele>1541.6</ele>
        <time>2021-10-16T09:39:18Z</time>
      </trkpt>
      <trkpt lat="47.699632393" lon="12.042595865">
        <ele>1538.7</ele>
        <time>2021-10-16T09:39:32Z</time>
      </trkpt>
      <trkpt lat="47.699478837" lon="12.042805916">
        <ele>1527.2</ele>
        <time>2021-10-16T09:40:19Z</time>
      </trkpt>
      <trkpt lat="47.699439107" lon="12.042845478">
        <ele>1525.3</ele>
        <time>2021-10-16T09:40:28Z</time>
      </trkpt>
      <trkpt lat="47.699386971" lon="12.042851597">
        <ele>1521.9</ele>
        <time>2021-10-16T09:40:43Z</time>
      </trkpt>
      <trkpt lat="47.699290914" lon="12.043031221">
        <ele>1516.6</ele>
        <time>2021-10-16T09:41:12Z</time>
      </trkpt>
      <trkpt lat="47.699262500" lon="12.043126272">
        <ele>1514.2</ele>
        <time>2021-10-16T09:41:23Z</time>
      </trkpt>
      <trkpt lat="47.699182620" lon="12.043187795">
        <ele>1510.8</ele>
        <time>2021-10-16T09:41:37Z</time>
      </trkpt>
      <trkpt lat="47.698991345" lon="12.043518713">
        <ele>1501.2</ele>
        <time>2021-10-16T09:43:16Z</time>
      </trkpt>
      <trkpt lat="47.699004170" lon="12.043491472">
        <ele>1503.2</ele>
        <time>2021-10-16T09:43:44Z</time>
      </trkpt>
      <trkpt lat="47.698995201" lon="12.043525837">
        <ele>1502.7</ele>
        <time>2021-10-16T09:44:00Z</time>
      </trkpt>
      <trkpt lat="47.699061921" lon="12.043565232">
        <ele>1501.7</ele>
        <time>2021-10-16T09:44:18Z</time>
      </trkpt>
      <trkpt lat="47.699249675" lon="12.043482168">
        <ele>1497.4</ele>
        <time>2021-10-16T09:44:40Z</time>
      </trkpt>
      <trkpt lat="47.699388480" lon="12.043515779">
        <ele>1491.6</ele>
        <time>2021-10-16T09:45:08Z</time>
      </trkpt>
      <trkpt lat="47.699485710" lon="12.043736139">
        <ele>1482.5</ele>
        <time>2021-10-16T09:45:43Z</time>
      </trkpt>
      <trkpt lat="47.699457547" lon="12.043802524">
        <ele>1479.6</ele>
        <time>2021-10-16T09:45:54Z</time>
      </trkpt>
      <trkpt lat="47.699476741" lon="12.043893384">
        <ele>1477.2</ele>
        <time>2021-10-16T09:46:07Z</time>
      </trkpt>
      <trkpt lat="47.699449165" lon="12.043961948">
        <ele>1473.8</ele>
        <time>2021-10-16T09:46:19Z</time>
      </trkpt>
      <trkpt lat="47.699429467" lon="12.044447847">
        <ele>1458.9</ele>
        <time>2021-10-16T09:47:19Z</time>
      </trkpt>
      <trkpt lat="47.699411446" lon="12.044538706">
        <ele>1455.6</ele>
        <time>2021-10-16T09:47:31Z</time>
      </trkpt>
      <trkpt lat="47.699440867" lon="12.044595871">
        <ele>1453.2</ele>
        <time>2021-10-16T09:47:40Z</time>
      </trkpt>
      <trkpt lat="47.699391162" lon="12.044706764">
        <ele>1450.8</ele>
        <time>2021-10-16T09:47:51Z</time>
      </trkpt>
      <trkpt lat="47.699304242" lon="12.044816483">
        <ele>1448.4</ele>
        <time>2021-10-16T09:48:06Z</time>
      </trkpt>
      <trkpt lat="47.699312205" lon="12.044928465">
        <ele>1445.5</ele>
        <time>2021-10-16T09:48:19Z</time>
      </trkpt>
      <trkpt lat="47.699274989" lon="12.045137677">
        <ele>1439.2</ele>
        <time>2021-10-16T09:48:44Z</time>
      </trkpt>
      <trkpt lat="47.699181531" lon="12.045381088">
        <ele>1433.9</ele>
        <time>2021-10-16T09:49:11Z</time>
      </trkpt>
      <trkpt lat="47.699044487" lon="12.045634054">
        <ele>1427.7</ele>
        <time>2021-10-16T09:49:38Z</time>
      </trkpt>
      <trkpt lat="47.698977683" lon="12.045829939">
        <ele>1421.9</ele>
        <time>2021-10-16T09:50:04Z</time>
      </trkpt>
      <trkpt lat="47.698927224" lon="12.045912249">
        <ele>1420.0</ele>
        <time>2021-10-16T09:50:15Z</time>
      </trkpt>
      <trkpt lat="47.698900821" lon="12.045996822">
        <ele>1418.6</ele>
        <time>2021-10-16T09:50:31Z</time>
      </trkpt>
      <trkpt lat="47.698981790" lon="12.045996822">
        <ele>1415.2</ele>
        <time>2021-10-16T09:50:50Z</time>
      </trkpt>
      <trkpt lat="47.699023783" lon="12.046070248">
        <ele>1412.3</ele>
        <time>2021-10-16T09:51:03Z</time>
      </trkpt>
      <trkpt lat="47.699121432" lon="12.046132525">
        <ele>1407.5</ele>
        <time>2021-10-16T09:51:27Z</time>
      </trkpt>
      <trkpt lat="47.699090503" lon="12.046329249">
        <ele>1402.2</ele>
        <time>2021-10-16T09:51:50Z</time>
      </trkpt>
      <trkpt lat="47.699135933" lon="12.046473166">
        <ele>1396.5</ele>
        <time>2021-10-16T09:52:15Z</time>
      </trkpt>
      <trkpt lat="47.699166276" lon="12.046613731">
        <ele>1391.2</ele>
        <time>2021-10-16T09:52:39Z</time>
      </trkpt>
      <trkpt lat="47.699202653" lon="12.046607863">
        <ele>1389.7</ele>
        <time>2021-10-16T09:52:48Z</time>
      </trkpt>
      <trkpt lat="47.699213969" lon="12.046569306">
        <ele>1387.8</ele>
        <time>2021-10-16T09:53:01Z</time>
      </trkpt>
      <trkpt lat="47.699237270" lon="12.046561679">
        <ele>1385.9</ele>
        <time>2021-10-16T09:53:36Z</time>
      </trkpt>
      <trkpt lat="47.699306002" lon="12.046668213">
        <ele>1380.1</ele>
        <time>2021-10-16T09:54:44Z</time>
      </trkpt>
      <trkpt lat="47.699344726" lon="12.046680031">
        <ele>1377.7</ele>
        <time>2021-10-16T09:54:57Z</time>
      </trkpt>
      <trkpt lat="47.699364172" lon="12.046779776">
        <ele>1374.3</ele>
        <time>2021-10-16T09:55:20Z</time>
      </trkpt>
      <trkpt lat="47.699475316" lon="12.046881113">
        <ele>1367.6</ele>
        <time>2021-10-16T09:55:55Z</time>
      </trkpt>
      <trkpt lat="47.699537594" lon="12.046981948">
        <ele>1360.9</ele>
        <time>2021-10-16T09:56:29Z</time>
      </trkpt>
      <trkpt lat="47.699654940" lon="12.046970716">
        <ele>1358.0</ele>
        <time>2021-10-16T09:56:49Z</time>
      </trkpt>
      <trkpt lat="47.699648654" lon="12.047037017">
        <ele>1356.1</ele>
        <time>2021-10-16T09:57:03Z</time>
      </trkpt>
      <trkpt lat="47.699755523" lon="12.046984462">
        <ele>1351.3</ele>
        <time>2021-10-16T09:57:32Z</time>
      </trkpt>
      <trkpt lat="47.699864740" lon="12.047053445">
        <ele>1346.9</ele>
        <time>2021-10-16T09:58:27Z</time>
      </trkpt>
      <trkpt lat="47.699817382" lon="12.047108598">
        <ele>1346.5</ele>
        <time>2021-10-16T09:58:51Z</time>
      </trkpt>
      <trkpt lat="47.699791398" lon="12.047187891">
        <ele>1345.0</ele>
        <time>2021-10-16T09:59:03Z</time>
      </trkpt>
      <trkpt lat="47.699876474" lon="12.047358882">
        <ele>1338.8</ele>
        <time>2021-10-16T09:59:31Z</time>
      </trkpt>
      <trkpt lat="47.699918887" lon="12.047468014">
        <ele>1336.4</ele>
        <time>2021-10-16T09:59:46Z</time>
      </trkpt>
      <trkpt lat="47.699896675" lon="12.047566166">
        <ele>1333.5</ele>
        <time>2021-10-16T09:59:59Z</time>
      </trkpt>
      <trkpt lat="47.699925005" lon="12.047602627">
        <ele>1331.6</ele>
        <time>2021-10-16T10:00:14Z</time>
      </trkpt>
      <trkpt lat="47.699894579" lon="12.047689212">
        <ele>1331.1</ele>
        <time>2021-10-16T10:00:40Z</time>
      </trkpt>
      <trkpt lat="47.699882593" lon="12.047791891">
        <ele>1328.2</ele>
        <time>2021-10-16T10:00:53Z</time>
      </trkpt>
      <trkpt lat="47.699932130" lon="12.047953159">
        <ele>1323.9</ele>
        <time>2021-10-16T10:01:21Z</time>
      </trkpt>
      <trkpt lat="47.699935315" lon="12.048082994">
        <ele>1321.0</ele>
        <time>2021-10-16T10:01:35Z</time>
      </trkpt>
      <trkpt lat="47.699960209" lon="12.048247531">
        <ele>1318.1</ele>
        <time>2021-10-16T10:01:52Z</time>
      </trkpt>
      <trkpt lat="47.700120304" lon="12.048717840">
        <ele>1311.4</ele>
        <time>2021-10-16T10:02:39Z</time>
      </trkpt>
      <trkpt lat="47.700101947" lon="12.048870726">
        <ele>1308.0</ele>
        <time>2021-10-16T10:03:03Z</time>
      </trkpt>
      <trkpt lat="47.700108904" lon="12.048946246">
        <ele>1307.5</ele>
        <time>2021-10-16T10:03:09Z</time>
      </trkpt>
      <trkpt lat="47.700129775" lon="12.048972314">
        <ele>1307.0</ele>
        <time>2021-10-16T10:03:12Z</time>
      </trkpt>
      <trkpt lat="47.700099601" lon="12.049078932">
        <ele>1304.7</ele>
        <time>2021-10-16T10:03:24Z</time>
      </trkpt>
      <trkpt lat="47.700017039" lon="12.049066024">
        <ele>1301.8</ele>
        <time>2021-10-16T10:03:37Z</time>
      </trkpt>
      <trkpt lat="47.699896675" lon="12.049139785">
        <ele>1296.5</ele>
        <time>2021-10-16T10:04:03Z</time>
      </trkpt>
      <trkpt lat="47.699836325" lon="12.049274398">
        <ele>1295.5</ele>
        <time>2021-10-16T10:04:18Z</time>
      </trkpt>
      <trkpt lat="47.699931376" lon="12.049300047">
        <ele>1293.6</ele>
        <time>2021-10-16T10:04:32Z</time>
      </trkpt>
      <trkpt lat="47.699963981" lon="12.049349248">
        <ele>1293.1</ele>
        <time>2021-10-16T10:04:40Z</time>
      </trkpt>
      <trkpt lat="47.699963227" lon="12.049403731">
        <ele>1291.2</ele>
        <time>2021-10-16T10:04:52Z</time>
      </trkpt>
      <trkpt lat="47.700065402" lon="12.049540523">
        <ele>1287.8</ele>
        <time>2021-10-16T10:05:19Z</time>
      </trkpt>
      <trkpt lat="47.700053584" lon="12.049614871">
        <ele>1285.4</ele>
        <time>2021-10-16T10:05:31Z</time>
      </trkpt>
      <trkpt lat="47.699997006" lon="12.049636748">
        <ele>1283.0</ele>
        <time>2021-10-16T10:05:42Z</time>
      </trkpt>
      <trkpt lat="47.699939758" lon="12.049695170">
        <ele>1281.1</ele>
        <time>2021-10-16T10:05:52Z</time>
      </trkpt>
      <trkpt lat="47.699902877" lon="12.049873034">
        <ele>1279.2</ele>
        <time>2021-10-16T10:06:06Z</time>
      </trkpt>
      <trkpt lat="47.699897513" lon="12.050216273">
        <ele>1276.8</ele>
        <time>2021-10-16T10:06:25Z</time>
      </trkpt>
      <trkpt lat="47.699844371" lon="12.050489271">
        <ele>1273.9</ele>
        <time>2021-10-16T10:06:42Z</time>
      </trkpt>
      <trkpt lat="47.699557124" lon="12.050776184">
        <ele>1267.2</ele>
        <time>2021-10-16T10:07:22Z</time>
      </trkpt>
      <trkpt lat="47.699419912" lon="12.051065359">
        <ele>1260.4</ele>
        <time>2021-10-16T10:08:04Z</time>
      </trkpt>
      <trkpt lat="47.699358137" lon="12.051146664">
        <ele>1259.9</ele>
        <time>2021-10-16T10:08:41Z</time>
      </trkpt>
      <trkpt lat="47.699289490" lon="12.051521670">
        <ele>1255.6</ele>
        <time>2021-10-16T10:09:13Z</time>
      </trkpt>
      <trkpt lat="47.699146662" lon="12.051627533">
        <ele>1252.2</ele>
        <time>2021-10-16T10:09:29Z</time>
      </trkpt>
      <trkpt lat="47.699053120" lon="12.051631557">
        <ele>1250.3</ele>
        <time>2021-10-16T10:09:40Z</time>
      </trkpt>
      <trkpt lat="47.698971061" lon="12.051693164">
        <ele>1247.0</ele>
        <time>2021-10-16T10:09:55Z</time>
      </trkpt>
      <trkpt lat="47.698999811" lon="12.051817887">
        <ele>1245.0</ele>
        <time>2021-10-16T10:10:08Z</time>
      </trkpt>
      <trkpt lat="47.699016994" lon="12.052014861">
        <ele>1242.2</ele>
        <time>2021-10-16T10:10:27Z</time>
      </trkpt>
      <trkpt lat="47.698959326" lon="12.052208986">
        <ele>1239.3</ele>
        <time>2021-10-16T10:10:40Z</time>
      </trkpt>
      <trkpt lat="47.698798310" lon="12.052392550">
        <ele>1236.9</ele>
        <time>2021-10-16T10:10:57Z</time>
      </trkpt>
      <trkpt lat="47.698561689" lon="12.052486176">
        <ele>1231.1</ele>
        <time>2021-10-16T10:11:27Z</time>
      </trkpt>
      <trkpt lat="47.698371252" lon="12.052599751">
        <ele>1228.7</ele>
        <time>2021-10-16T10:11:40Z</time>
      </trkpt>
      <trkpt lat="47.698232615" lon="12.052702094">
        <ele>1226.8</ele>
        <time>2021-10-16T10:11:53Z</time>
      </trkpt>
      <trkpt lat="47.698107474" lon="12.052843580">
        <ele>1224.4</ele>
        <time>2021-10-16T10:12:11Z</time>
      </trkpt>
      <trkpt lat="47.697972273" lon="12.052947935">
        <ele>1221.0</ele>
        <time>2021-10-16T10:12:28Z</time>
      </trkpt>
      <trkpt lat="47.697924161" lon="12.053014236">
        <ele>1219.6</ele>
        <time>2021-10-16T10:12:44Z</time>
      </trkpt>
      <trkpt lat="47.697843108" lon="12.053305004">
        <ele>1215.2</ele>
        <time>2021-10-16T10:13:16Z</time>
      </trkpt>
      <trkpt lat="47.697877558" lon="12.053712532">
        <ele>1210.4</ele>
        <time>2021-10-16T10:13:47Z</time>
      </trkpt>
      <trkpt lat="47.697849562" lon="12.054179488">
        <ele>1203.2</ele>
        <time>2021-10-16T10:14:27Z</time>
      </trkpt>
      <trkpt lat="47.697814526" lon="12.054380067">
        <ele>1200.3</ele>
        <time>2021-10-16T10:14:43Z</time>
      </trkpt>
      <trkpt lat="47.697858531" lon="12.054736130">
        <ele>1194.1</ele>
        <time>2021-10-16T10:15:13Z</time>
      </trkpt>
      <trkpt lat="47.697847551" lon="12.054778710">
        <ele>1191.2</ele>
        <time>2021-10-16T10:16:46Z</time>
      </trkpt>
      <trkpt lat="47.697869260" lon="12.054868732">
        <ele>1191.2</ele>
        <time>2021-10-16T10:17:20Z</time>
      </trkpt>
      <trkpt lat="47.698014015" lon="12.055201409">
        <ele>1187.4</ele>
        <time>2021-10-16T10:17:47Z</time>
      </trkpt>
      <trkpt lat="47.698152233" lon="12.055427805">
        <ele>1186.9</ele>
        <time>2021-10-16T10:18:08Z</time>
      </trkpt>
      <trkpt lat="47.698234795" lon="12.055394277">
        <ele>1184.0</ele>
        <time>2021-10-16T10:18:27Z</time>
      </trkpt>
      <trkpt lat="47.698456496" lon="12.055097977">
        <ele>1182.6</ele>
        <time>2021-10-16T10:18:59Z</time>
      </trkpt>
      <trkpt lat="47.698564120" lon="12.054773178">
        <ele>1184.0</ele>
        <time>2021-10-16T10:19:36Z</time>
      </trkpt>
      <trkpt lat="47.698641149" lon="12.054760270">
        <ele>1184.5</ele>
        <time>2021-10-16T10:19:55Z</time>
      </trkpt>
      <trkpt lat="47.698658248" lon="12.054796647">
        <ele>1185.0</ele>
        <time>2021-10-16T10:20:11Z</time>
      </trkpt>
      <trkpt lat="47.698655818" lon="12.054771585">
        <ele>1225.8</ele>
        <time>2021-10-16T10:20:31Z</time>
      </trkpt>
      <trkpt lat="47.698695799" lon="12.054775190">
        <ele>1185.0</ele>
        <time>2021-10-16T10:21:22Z</time>
      </trkpt>
      <trkpt lat="47.698702086" lon="12.054797318">
        <ele>1182.1</ele>
        <time>2021-10-16T10:21:34Z</time>
      </trkpt>
      <trkpt lat="47.698699404" lon="12.054913240">
        <ele>1181.6</ele>
        <time>2021-10-16T10:21:53Z</time>
      </trkpt>
      <trkpt lat="47.698725304" lon="12.055099234">
        <ele>1179.2</ele>
        <time>2021-10-16T10:22:07Z</time>
      </trkpt>
      <trkpt lat="47.698723627" lon="12.055367287">
        <ele>1174.9</ele>
        <time>2021-10-16T10:22:31Z</time>
      </trkpt>
      <trkpt lat="47.698659506" lon="12.055683285">
        <ele>1169.6</ele>
        <time>2021-10-16T10:22:53Z</time>
      </trkpt>
      <trkpt lat="47.698717341" lon="12.056051418">
        <ele>1162.8</ele>
        <time>2021-10-16T10:23:25Z</time>
      </trkpt>
      <trkpt lat="47.698787581" lon="12.056188630">
        <ele>1160.0</ele>
        <time>2021-10-16T10:23:36Z</time>
      </trkpt>
      <trkpt lat="47.698838292" lon="12.056332212">
        <ele>1156.6</ele>
        <time>2021-10-16T10:23:57Z</time>
      </trkpt>
      <trkpt lat="47.698810212" lon="12.056322573">
        <ele>1155.2</ele>
        <time>2021-10-16T10:24:19Z</time>
      </trkpt>
      <trkpt lat="47.698723460" lon="12.056358950">
        <ele>1154.2</ele>
        <time>2021-10-16T10:24:52Z</time>
      </trkpt>
      <trkpt lat="47.698683059" lon="12.056462886">
        <ele>1153.7</ele>
        <time>2021-10-16T10:25:03Z</time>
      </trkpt>
      <trkpt lat="47.698718095" lon="12.056711158">
        <ele>1154.2</ele>
        <time>2021-10-16T10:25:18Z</time>
      </trkpt>
      <trkpt lat="47.698698565" lon="12.056834456">
        <ele>1154.7</ele>
        <time>2021-10-16T10:25:25Z</time>
      </trkpt>
      <trkpt lat="47.698562108" lon="12.057022965">
        <ele>1153.2</ele>
        <time>2021-10-16T10:25:41Z</time>
      </trkpt>
      <trkpt lat="47.698389273" lon="12.057210552">
        <ele>1151.8</ele>
        <time>2021-10-16T10:25:59Z</time>
      </trkpt>
      <trkpt lat="47.698245356" lon="12.057229411">
        <ele>1151.8</ele>
        <time>2021-10-16T10:26:13Z</time>
      </trkpt>
      <trkpt lat="47.698021978" lon="12.057150621">
        <ele>1149.4</ele>
        <time>2021-10-16T10:27:13Z</time>
      </trkpt>
      <trkpt lat="47.697877390" lon="12.057141066">
        <ele>1148.9</ele>
        <time>2021-10-16T10:27:55Z</time>
      </trkpt>
      <trkpt lat="47.697815699" lon="12.057078453">
        <ele>1148.9</ele>
        <time>2021-10-16T10:28:11Z</time>
      </trkpt>
      <trkpt lat="47.697743448" lon="12.057069903">
        <ele>1149.4</ele>
        <time>2021-10-16T10:28:18Z</time>
      </trkpt>
      <trkpt lat="47.697584694" lon="12.057106281">
        <ele>1148.4</ele>
        <time>2021-10-16T10:28:37Z</time>
      </trkpt>
      <trkpt lat="47.697477741" lon="12.057169899">
        <ele>1149.9</ele>
        <time>2021-10-16T10:28:50Z</time>
      </trkpt>
      <trkpt lat="47.697260566" lon="12.057372574">
        <ele>1150.8</ele>
        <time>2021-10-16T10:29:25Z</time>
      </trkpt>
      <trkpt lat="47.697080020" lon="12.057420937">
        <ele>1150.8</ele>
        <time>2021-10-16T10:29:42Z</time>
      </trkpt>
      <trkpt lat="47.696923865" lon="12.057525208">
        <ele>1151.3</ele>
        <time>2021-10-16T10:30:03Z</time>
      </trkpt>
      <trkpt lat="47.696732841" lon="12.057515150">
        <ele>1150.8</ele>
        <time>2021-10-16T10:30:21Z</time>
      </trkpt>
      <trkpt lat="47.696626475" lon="12.057332676">
        <ele>1149.4</ele>
        <time>2021-10-16T10:30:37Z</time>
      </trkpt>
      <trkpt lat="47.696540142" lon="12.057135198">
        <ele>1148.9</ele>
        <time>2021-10-16T10:30:52Z</time>
      </trkpt>
      <trkpt lat="47.696498232" lon="12.056997065">
        <ele>1148.4</ele>
        <time>2021-10-16T10:31:12Z</time>
      </trkpt>
      <trkpt lat="47.696394967" lon="12.056829510">
        <ele>1147.5</ele>
        <time>2021-10-16T10:31:28Z</time>
      </trkpt>
      <trkpt lat="47.696284829" lon="12.056727922">
        <ele>1148.0</ele>
        <time>2021-10-16T10:31:46Z</time>
      </trkpt>
      <trkpt lat="47.696124986" lon="12.056653239">
        <ele>1147.5</ele>
        <time>2021-10-16T10:32:04Z</time>
      </trkpt>
      <trkpt lat="47.695868583" lon="12.056731526">
        <ele>1148.4</ele>
        <time>2021-10-16T10:32:29Z</time>
      </trkpt>
      <trkpt lat="47.695564153" lon="12.056593141">
        <ele>1148.4</ele>
        <time>2021-10-16T10:33:02Z</time>
      </trkpt>
      <trkpt lat="47.695272043" lon="12.056521308">
        <ele>1149.9</ele>
        <time>2021-10-16T10:33:32Z</time>
      </trkpt>
      <trkpt lat="47.695165929" lon="12.056269348">
        <ele>1151.3</ele>
        <time>2021-10-16T10:33:58Z</time>
      </trkpt>
      <trkpt lat="47.694987645" lon="12.055738354">
        <ele>1157.6</ele>
        <time>2021-10-16T10:34:45Z</time>
      </trkpt>
      <trkpt lat="47.694798466" lon="12.055367706">
        <ele>1163.8</ele>
        <time>2021-10-16T10:35:26Z</time>
      </trkpt>
      <trkpt lat="47.694676509" lon="12.055000160">
        <ele>1166.2</ele>
        <time>2021-10-16T10:35:57Z</time>
      </trkpt>
      <trkpt lat="47.694662344" lon="12.054859428">
        <ele>1168.1</ele>
        <time>2021-10-16T10:36:12Z</time>
      </trkpt>
      <trkpt lat="47.694528988" lon="12.054565139">
        <ele>1171.5</ele>
        <time>2021-10-16T10:36:39Z</time>
      </trkpt>
      <trkpt lat="47.694419939" lon="12.054237826">
        <ele>1174.4</ele>
        <time>2021-10-16T10:37:08Z</time>
      </trkpt>
      <trkpt lat="47.694320613" lon="12.053737929">
        <ele>1177.3</ele>
        <time>2021-10-16T10:37:46Z</time>
      </trkpt>
      <trkpt lat="47.693954576" lon="12.053071903">
        <ele>1180.2</ele>
        <time>2021-10-16T10:38:31Z</time>
      </trkpt>
      <trkpt lat="47.693855083" lon="12.052784990">
        <ele>1180.2</ele>
        <time>2021-10-16T10:38:49Z</time>
      </trkpt>
      <trkpt lat="47.693782328" lon="12.052455498">
        <ele>1180.6</ele>
        <time>2021-10-16T10:39:09Z</time>
      </trkpt>
      <trkpt lat="47.693691468" lon="12.052170597">
        <ele>1180.6</ele>
        <time>2021-10-16T10:39:27Z</time>
      </trkpt>
      <trkpt lat="47.693636483" lon="12.051875135">
        <ele>1181.6</ele>
        <time>2021-10-16T10:39:46Z</time>
      </trkpt>
      <trkpt lat="47.693539001" lon="12.051640023">
        <ele>1181.6</ele>
        <time>2021-10-16T10:40:03Z</time>
      </trkpt>
      <trkpt lat="47.693399945" lon="12.051494764">
        <ele>1182.6</ele>
        <time>2021-10-16T10:40:21Z</time>
      </trkpt>
      <trkpt lat="47.693350324" lon="12.051235344">
        <ele>1183.0</ele>
        <time>2021-10-16T10:40:39Z</time>
      </trkpt>
      <trkpt lat="47.693351079" lon="12.051143227">
        <ele>1183.0</ele>
        <time>2021-10-16T10:40:45Z</time>
      </trkpt>
      <trkpt lat="47.693323251" lon="12.051074076">
        <ele>1183.0</ele>
        <time>2021-10-16T10:40:50Z</time>
      </trkpt>
      <trkpt lat="47.693146812" lon="12.050997633">
        <ele>1183.5</ele>
        <time>2021-10-16T10:41:08Z</time>
      </trkpt>
      <trkpt lat="47.692712545" lon="12.050682809">
        <ele>1185.9</ele>
        <time>2021-10-16T10:42:00Z</time>
      </trkpt>
      <trkpt lat="47.692574160" lon="12.050414421">
        <ele>1186.4</ele>
        <time>2021-10-16T10:42:21Z</time>
      </trkpt>
      <trkpt lat="47.692476343" lon="12.050083755">
        <ele>1185.9</ele>
        <time>2021-10-16T10:42:43Z</time>
      </trkpt>
      <trkpt lat="47.692387663" lon="12.049706569">
        <ele>1185.0</ele>
        <time>2021-10-16T10:43:04Z</time>
      </trkpt>
      <trkpt lat="47.692330666" lon="12.049318738">
        <ele>1183.5</ele>
        <time>2021-10-16T10:43:26Z</time>
      </trkpt>
      <trkpt lat="47.692328822" lon="12.048651958">
        <ele>1181.6</ele>
        <time>2021-10-16T10:44:04Z</time>
      </trkpt>
      <trkpt lat="47.692296971" lon="12.048024153">
        <ele>1181.6</ele>
        <time>2021-10-16T10:44:43Z</time>
      </trkpt>
      <trkpt lat="47.692259001" lon="12.047693906">
        <ele>1181.1</ele>
        <time>2021-10-16T10:45:01Z</time>
      </trkpt>
      <trkpt lat="47.692215247" lon="12.047569351">
        <ele>1180.6</ele>
        <time>2021-10-16T10:45:12Z</time>
      </trkpt>
      <trkpt lat="47.692160597" lon="12.047216641">
        <ele>1179.2</ele>
        <time>2021-10-16T10:45:34Z</time>
      </trkpt>
      <trkpt lat="47.691802522" lon="12.047046069">
        <ele>1173.4</ele>
        <time>2021-10-16T10:46:11Z</time>
      </trkpt>
      <trkpt lat="47.691612504" lon="12.047092505">
        <ele>1171.0</ele>
        <time>2021-10-16T10:46:28Z</time>
      </trkpt>
      <trkpt lat="47.691286029" lon="12.047306579">
        <ele>1168.6</ele>
        <time>2021-10-16T10:46:58Z</time>
      </trkpt>
      <trkpt lat="47.691032225" lon="12.047300879">
        <ele>1165.7</ele>
        <time>2021-10-16T10:47:19Z</time>
      </trkpt>
      <trkpt lat="47.690833658" lon="12.047089487">
        <ele>1163.3</ele>
        <time>2021-10-16T10:47:39Z</time>
      </trkpt>
      <trkpt lat="47.690431243" lon="12.046589255">
        <ele>1159.5</ele>
        <time>2021-10-16T10:48:22Z</time>
      </trkpt>
      <trkpt lat="47.690278944" lon="12.046493534">
        <ele>1158.0</ele>
        <time>2021-10-16T10:48:38Z</time>
      </trkpt>
      <trkpt lat="47.690171488" lon="12.046487834">
        <ele>1155.6</ele>
        <time>2021-10-16T10:48:55Z</time>
      </trkpt>
      <trkpt lat="47.690117005" lon="12.046269653">
        <ele>1155.6</ele>
        <time>2021-10-16T10:50:18Z</time>
      </trkpt>
      <trkpt lat="47.689946685" lon="12.046063375">
        <ele>1156.1</ele>
        <time>2021-10-16T10:50:38Z</time>
      </trkpt>
      <trkpt lat="47.689754991" lon="12.045959104">
        <ele>1155.2</ele>
        <time>2021-10-16T10:50:58Z</time>
      </trkpt>
      <trkpt lat="47.689615684" lon="12.045794400">
        <ele>1155.2</ele>
        <time>2021-10-16T10:51:19Z</time>
      </trkpt>
      <trkpt lat="47.689374955" lon="12.045312189">
        <ele>1157.6</ele>
        <time>2021-10-16T10:51:51Z</time>
      </trkpt>
      <trkpt lat="47.689282838" lon="12.044959730">
        <ele>1158.0</ele>
        <time>2021-10-16T10:52:12Z</time>
      </trkpt>
      <trkpt lat="47.689211089" lon="12.044592267">
        <ele>1156.6</ele>
        <time>2021-10-16T10:52:33Z</time>
      </trkpt>
      <trkpt lat="47.689170688" lon="12.044297978">
        <ele>1157.6</ele>
        <time>2021-10-16T10:52:51Z</time>
      </trkpt>
      <trkpt lat="47.689031549" lon="12.043989524">
        <ele>1157.1</ele>
        <time>2021-10-16T10:53:11Z</time>
      </trkpt>
      <trkpt lat="47.688990310" lon="12.043624325">
        <ele>1156.6</ele>
        <time>2021-10-16T10:53:32Z</time>
      </trkpt>
      <trkpt lat="47.689015455" lon="12.043373370">
        <ele>1158.5</ele>
        <time>2021-10-16T10:53:50Z</time>
      </trkpt>
      <trkpt lat="47.689112686" lon="12.043184526">
        <ele>1160.9</ele>
        <time>2021-10-16T10:54:08Z</time>
      </trkpt>
      <trkpt lat="47.689218130" lon="12.043026779">
        <ele>1163.8</ele>
        <time>2021-10-16T10:54:25Z</time>
      </trkpt>
      <trkpt lat="47.689356767" lon="12.042917814">
        <ele>1166.7</ele>
        <time>2021-10-16T10:54:44Z</time>
      </trkpt>
      <trkpt lat="47.689502277" lon="12.042859476">
        <ele>1169.6</ele>
        <time>2021-10-16T10:55:02Z</time>
      </trkpt>
      <trkpt lat="47.689577043" lon="12.042779345">
        <ele>1172.0</ele>
        <time>2021-10-16T10:55:12Z</time>
      </trkpt>
      <trkpt lat="47.689665807" lon="12.042421103">
        <ele>1173.9</ele>
        <time>2021-10-16T10:55:34Z</time>
      </trkpt>
      <trkpt lat="47.689830679" lon="12.042094460">
        <ele>1173.4</ele>
        <time>2021-10-16T10:55:55Z</time>
      </trkpt>
      <trkpt lat="47.690033857" lon="12.041923218">
        <ele>1172.0</ele>
        <time>2021-10-16T10:56:13Z</time>
      </trkpt>
      <trkpt lat="47.690468207" lon="12.041629264">
        <ele>1170.5</ele>
        <time>2021-10-16T10:56:53Z</time>
      </trkpt>
      <trkpt lat="47.690398553" lon="12.041396666">
        <ele>1171.5</ele>
        <time>2021-10-16T10:57:12Z</time>
      </trkpt>
      <trkpt lat="47.690204009" lon="12.041191729">
        <ele>1176.3</ele>
        <time>2021-10-16T10:57:34Z</time>
      </trkpt>
      <trkpt lat="47.690086076" lon="12.041006321">
        <ele>1179.2</ele>
        <time>2021-10-16T10:57:51Z</time>
      </trkpt>
      <trkpt lat="47.690029582" lon="12.040856788">
        <ele>1181.6</ele>
        <time>2021-10-16T10:58:07Z</time>
      </trkpt>
      <trkpt lat="47.690000916" lon="12.040749416">
        <ele>1183.5</ele>
        <time>2021-10-16T10:58:21Z</time>
      </trkpt>
      <trkpt lat="47.690007202" lon="12.040728629">
        <ele>1182.6</ele>
        <time>2021-10-16T10:58:39Z</time>
      </trkpt>
      <trkpt lat="47.689875690" lon="12.040721169">
        <ele>1182.1</ele>
        <time>2021-10-16T10:59:15Z</time>
      </trkpt>
      <trkpt lat="47.689682907" lon="12.040645396">
        <ele>1181.1</ele>
        <time>2021-10-16T10:59:33Z</time>
      </trkpt>
      <trkpt lat="47.689491380" lon="12.040447667">
        <ele>1179.2</ele>
        <time>2021-10-16T10:59:54Z</time>
      </trkpt>
      <trkpt lat="47.689405549" lon="12.040229235">
        <ele>1177.8</ele>
        <time>2021-10-16T11:00:12Z</time>
      </trkpt>
      <trkpt lat="47.689399598" lon="12.040117923">
        <ele>1179.2</ele>
        <time>2021-10-16T11:01:36Z</time>
      </trkpt>
      <trkpt lat="47.689334806" lon="12.039773762">
        <ele>1179.7</ele>
        <time>2021-10-16T11:02:02Z</time>
      </trkpt>
      <trkpt lat="47.689200025" lon="12.039623223">
        <ele>1176.8</ele>
        <time>2021-10-16T11:02:18Z</time>
      </trkpt>
      <trkpt lat="47.688990729" lon="12.039603777">
        <ele>1173.4</ele>
        <time>2021-10-16T11:02:35Z</time>
      </trkpt>
      <trkpt lat="47.688722676" lon="12.039761357">
        <ele>1168.6</ele>
        <time>2021-10-16T11:03:13Z</time>
      </trkpt>
      <trkpt lat="47.688490832" lon="12.040028991">
        <ele>1164.8</ele>
        <time>2021-10-16T11:03:38Z</time>
      </trkpt>
      <trkpt lat="47.688336438" lon="12.040274078">
        <ele>1161.4</ele>
        <time>2021-10-16T11:03:56Z</time>
      </trkpt>
      <trkpt lat="47.688206099" lon="12.040533749">
        <ele>1158.5</ele>
        <time>2021-10-16T11:04:13Z</time>
      </trkpt>
      <trkpt lat="47.687948188" lon="12.041180246">
        <ele>1153.2</ele>
        <time>2021-10-16T11:04:53Z</time>
      </trkpt>
      <trkpt lat="47.687781304" lon="12.041411251">
        <ele>1151.8</ele>
        <time>2021-10-16T11:05:11Z</time>
      </trkpt>
      <trkpt lat="47.687506461" lon="12.041369341">
        <ele>1148.9</ele>
        <time>2021-10-16T11:05:34Z</time>
      </trkpt>
      <trkpt lat="47.687223908" lon="12.041133642">
        <ele>1142.7</ele>
        <time>2021-10-16T11:06:00Z</time>
      </trkpt>
      <trkpt lat="47.687152578" lon="12.041100953">
        <ele>1141.2</ele>
        <time>2021-10-16T11:06:06Z</time>
      </trkpt>
      <trkpt lat="47.686980330" lon="12.040963322">
        <ele>1136.9</ele>
        <time>2021-10-16T11:06:24Z</time>
      </trkpt>
      <trkpt lat="47.686839933" lon="12.040965836">
        <ele>1133.5</ele>
        <time>2021-10-16T11:06:37Z</time>
      </trkpt>
      <trkpt lat="47.686698530" lon="12.041030461">
        <ele>1130.2</ele>
        <time>2021-10-16T11:06:51Z</time>
      </trkpt>
      <trkpt lat="47.686587973" lon="12.041215282">
        <ele>1127.3</ele>
        <time>2021-10-16T11:07:06Z</time>
      </trkpt>
      <trkpt lat="47.686457215" lon="12.041276973">
        <ele>1123.9</ele>
        <time>2021-10-16T11:07:21Z</time>
      </trkpt>
      <trkpt lat="47.686355794" lon="12.041290803">
        <ele>1120.1</ele>
        <time>2021-10-16T11:07:34Z</time>
      </trkpt>
      <trkpt lat="47.686201148" lon="12.041256605">
        <ele>1114.8</ele>
        <time>2021-10-16T11:07:56Z</time>
      </trkpt>
      <trkpt lat="47.686131075" lon="12.041293401">
        <ele>1113.3</ele>
        <time>2021-10-16T11:08:06Z</time>
      </trkpt>
      <trkpt lat="47.685864530" lon="12.041282421">
        <ele>1106.1</ele>
        <time>2021-10-16T11:08:37Z</time>
      </trkpt>
      <trkpt lat="47.685592202" lon="12.041429607">
        <ele>1100.4</ele>
        <time>2021-10-16T11:09:12Z</time>
      </trkpt>
      <trkpt lat="47.685444178" lon="12.041480318">
        <ele>1097.0</ele>
        <time>2021-10-16T11:09:30Z</time>
      </trkpt>
      <trkpt lat="47.685283497" lon="12.041501524">
        <ele>1093.6</ele>
        <time>2021-10-16T11:09:51Z</time>
      </trkpt>
      <trkpt lat="47.685202528" lon="12.041603783">
        <ele>1091.7</ele>
        <time>2021-10-16T11:10:04Z</time>
      </trkpt>
      <trkpt lat="47.685124073" lon="12.041596491">
        <ele>1091.2</ele>
        <time>2021-10-16T11:10:13Z</time>
      </trkpt>
      <trkpt lat="47.685033046" lon="12.041167924">
        <ele>1092.2</ele>
        <time>2021-10-16T11:10:41Z</time>
      </trkpt>
      <trkpt lat="47.684868174" lon="12.040507682">
        <ele>1093.2</ele>
        <time>2021-10-16T11:11:25Z</time>
      </trkpt>
      <trkpt lat="47.684767004" lon="12.040304923">
        <ele>1094.1</ele>
        <time>2021-10-16T11:11:43Z</time>
      </trkpt>
      <trkpt lat="47.684619818" lon="12.039889935">
        <ele>1092.2</ele>
        <time>2021-10-16T11:12:11Z</time>
      </trkpt>
      <trkpt lat="47.684596265" lon="12.039769404">
        <ele>1096.5</ele>
        <time>2021-10-16T11:12:21Z</time>
      </trkpt>
    </trkseg>
  </trk>
</gpx>
